createdAt,value
2018-09-08T00:00:29.356Z,60.81
2018-09-08T00:02:56.658Z,61.22
2018-09-08T00:05:24.001Z,61.83
2018-09-08T00:07:51.858Z,62.44
2018-09-08T00:10:19.312Z,62.26
2018-09-08T00:12:47.681Z,61.99
2018-09-08T00:15:20.616Z,61.90
2018-09-08T00:17:53.601Z,61.55
2018-09-08T00:20:26.558Z,62.20
2018-09-08T00:23:06.508Z,62.42
2018-09-08T00:25:39.630Z,62.73
2018-09-08T00:28:17.707Z,63.63
2018-09-08T00:30:45.254Z,63.14
2018-09-08T00:33:12.532Z,62.89
2018-09-08T00:35:39.927Z,63.21
2018-09-08T00:38:07.490Z,63.47
2018-09-08T00:40:36.009Z,64.12
2018-09-08T00:43:03.498Z,64.27
2018-09-08T00:45:30.837Z,65.12
2018-09-08T00:47:58.254Z,65.11
2018-09-08T00:50:26.031Z,64.46
2018-09-08T00:52:53.328Z,65.49
2018-09-08T00:55:20.581Z,64.70
2018-09-08T00:57:47.853Z,64.55
2018-09-08T01:00:15.216Z,64.98
2018-09-08T01:02:42.697Z,64.83
2018-09-08T01:05:10.034Z,65.10
2018-09-08T01:07:37.563Z,65.15
2018-09-08T01:10:05.038Z,65.58
2018-09-08T01:12:32.466Z,66.13
2018-09-08T01:15:00.792Z,65.84
2018-09-08T01:17:28.989Z,65.96
2018-09-08T01:19:56.543Z,65.29
2018-09-08T01:22:24.205Z,65.89
2018-09-08T01:24:51.821Z,65.47
2018-09-08T01:27:19.376Z,65.73
2018-09-08T01:29:46.660Z,66.39
2018-09-08T01:32:14.118Z,65.88
2018-09-08T01:34:41.414Z,66.07
2018-09-08T01:37:09.078Z,65.99
2018-09-08T01:39:36.366Z,66.08
2018-09-08T01:42:03.678Z,66.10
2018-09-08T01:44:30.933Z,65.98
2018-09-08T01:46:58.597Z,66.45
2018-09-08T01:49:26.605Z,66.18
2018-09-08T01:51:53.868Z,66.78
2018-09-08T01:54:21.126Z,66.94
2018-09-08T01:56:48.347Z,66.83
2018-09-08T01:59:15.733Z,67.34
2018-09-08T02:01:42.949Z,66.80
2018-09-08T02:04:10.814Z,68.30
2018-09-08T02:06:39.933Z,68.40
2018-09-08T02:09:07.207Z,67.87
2018-09-08T02:11:34.591Z,68.13
2018-09-08T02:14:02.006Z,67.56
2018-09-08T02:16:30.372Z,67.31
2018-09-08T02:18:57.717Z,68.95
2018-09-08T02:21:25.040Z,68.24
2018-09-08T02:23:52.285Z,66.97
2018-09-08T02:26:19.571Z,67.48
2018-09-08T02:28:46.776Z,67.51
2018-09-08T02:31:14.038Z,68.19
2018-09-08T02:33:41.890Z,69.85
2018-09-08T02:36:09.172Z,69.52
2018-09-08T02:38:36.441Z,68.62
2018-09-08T02:41:04.712Z,70.49
2018-09-08T02:43:31.977Z,70.89
2018-09-08T02:45:59.220Z,68.55
2018-09-08T02:48:26.479Z,69.53
2018-09-08T02:50:52.741Z,68.91
2018-09-08T02:53:18.954Z,68.69
2018-09-08T02:55:45.231Z,71.78
2018-09-08T02:58:11.694Z,69.18
2018-09-08T03:00:37.929Z,70.20
2018-09-08T03:03:04.226Z,69.60
2018-09-08T03:05:30.499Z,70.96
2018-09-08T03:07:56.770Z,70.57
2018-09-08T03:10:22.977Z,70.32
2018-09-08T03:12:51.150Z,70.54
2018-09-08T03:15:17.625Z,70.01
2018-09-08T03:17:44.155Z,69.67
2018-09-08T03:20:10.437Z,70.57
2018-09-08T03:22:36.926Z,70.73
2018-09-08T03:25:03.397Z,70.31
2018-09-08T03:27:29.627Z,70.47
2018-09-08T03:29:56.045Z,72.93
2018-09-08T03:32:22.259Z,70.54
2018-09-08T03:34:48.482Z,69.93
2018-09-08T03:37:14.698Z,70.58
2018-09-08T03:39:40.951Z,71.54
2018-09-08T03:42:07.189Z,72.37
2018-09-08T03:44:33.446Z,72.50
2018-09-08T03:46:59.689Z,71.00
2018-09-08T03:49:25.910Z,70.42
2018-09-08T03:51:52.177Z,72.41
2018-09-08T03:54:18.431Z,73.00
2018-09-08T03:56:44.679Z,73.52
2018-09-08T03:59:10.873Z,74.53
2018-09-08T04:01:37.154Z,72.00
2018-09-08T04:04:04.576Z,71.65
2018-09-08T04:06:32.062Z,71.57
2018-09-08T04:08:59.562Z,71.52
2018-09-08T04:11:26.806Z,74.01
2018-09-08T04:13:54.015Z,71.95
2018-09-08T04:16:21.594Z,71.74
2018-09-08T04:18:49.644Z,72.05
2018-09-08T04:21:16.866Z,71.82
2018-09-08T04:23:45.061Z,71.69
2018-09-08T04:26:12.619Z,71.80
2018-09-08T04:28:40.830Z,71.90
2018-09-08T04:31:08.137Z,72.68
2018-09-08T04:33:35.684Z,71.95
2018-09-08T04:36:03.397Z,72.71
2018-09-08T04:38:30.684Z,72.78
2018-09-08T04:40:57.963Z,72.98
2018-09-08T04:43:25.758Z,73.65
2018-09-08T04:45:53.923Z,74.70
2018-09-08T04:48:21.382Z,74.00
2018-09-08T04:50:48.798Z,74.24
2018-09-08T04:53:16.039Z,72.34
2018-09-08T04:55:43.325Z,73.14
2018-09-08T04:58:10.624Z,73.60
2018-09-08T05:00:38.146Z,72.59
2018-09-08T05:03:05.829Z,72.72
2018-09-08T05:05:33.293Z,73.26
2018-09-08T05:08:00.628Z,73.97
2018-09-08T05:10:27.873Z,73.16
2018-09-08T05:12:55.790Z,73.47
2018-09-08T05:15:23.381Z,73.24
2018-09-08T05:17:50.696Z,73.36
2018-09-08T05:20:18.385Z,73.41
2018-09-08T05:22:45.709Z,73.56
2018-09-08T05:25:13.626Z,74.44
2018-09-08T05:27:40.987Z,73.99
2018-09-08T05:30:08.434Z,73.55
2018-09-08T05:32:35.908Z,74.05
2018-09-08T05:35:03.257Z,73.33
2018-09-08T05:37:30.837Z,74.14
2018-09-08T05:39:58.198Z,75.53
2018-09-08T05:42:25.518Z,75.52
2018-09-08T05:44:52.889Z,75.27
2018-09-08T05:47:20.287Z,76.32
2018-09-08T05:49:47.764Z,77.07
2018-09-08T05:52:15.025Z,77.56
2018-09-08T05:54:42.721Z,76.78
2018-09-08T05:57:10.152Z,77.49
2018-09-08T05:59:38.089Z,75.92
2018-09-08T06:02:05.399Z,78.25
2018-09-08T06:04:32.755Z,77.69
2018-09-08T06:07:03.761Z,78.24
2018-09-08T06:09:32.448Z,78.58
2018-09-08T06:11:59.895Z,78.52
2018-09-08T06:14:27.575Z,78.67
2018-09-08T06:16:56.045Z,78.18
2018-09-08T06:19:25.442Z,77.27
2018-09-08T06:21:52.856Z,77.13
2018-09-08T06:24:20.867Z,76.68
2018-09-08T06:26:48.074Z,77.33
2018-09-08T06:29:15.718Z,77.07
2018-09-08T06:31:43.483Z,76.46
2018-09-08T06:34:10.776Z,76.10
2018-09-08T06:36:38.207Z,76.20
2018-09-08T06:39:07.624Z,77.12
2018-09-08T06:41:35.230Z,76.31
2018-09-08T06:44:02.664Z,76.40
2018-09-08T06:46:30.778Z,76.29
2018-09-08T06:48:59.487Z,76.58
2018-09-08T06:51:28.790Z,76.29
2018-09-08T06:53:57.720Z,75.66
2018-09-08T06:56:27.015Z,75.46
2018-09-08T06:58:57.202Z,75.55
2018-09-08T07:01:26.265Z,74.55
2018-09-08T07:03:53.719Z,74.08
2018-09-08T07:06:21.208Z,72.89
2018-09-08T07:08:48.806Z,73.24
2018-09-08T07:11:16.682Z,72.51
2018-09-08T07:13:43.981Z,71.88
2018-09-08T07:16:12.057Z,72.43
2018-09-08T07:18:39.486Z,71.77
2018-09-08T07:21:06.780Z,71.29
2018-09-08T07:23:34.085Z,70.75
2018-09-08T07:26:02.133Z,70.81
2018-09-08T07:28:30.493Z,70.41
2018-09-08T07:30:58.020Z,70.85
2018-09-08T07:33:25.275Z,70.66
2018-09-08T07:35:52.600Z,69.70
2018-09-08T07:38:19.925Z,69.66
2018-09-08T07:40:47.244Z,69.46
2018-09-08T07:43:14.801Z,69.39
2018-09-08T07:45:42.433Z,69.42
2018-09-08T07:48:09.969Z,69.08
2018-09-08T07:50:37.429Z,67.97
2018-09-08T07:53:05.234Z,67.44
2018-09-08T07:55:32.494Z,68.01
2018-09-08T07:58:00.812Z,67.33
2018-09-08T08:00:28.125Z,66.57
2018-09-08T08:02:55.479Z,66.55
2018-09-08T08:05:22.905Z,67.20
2018-09-08T08:07:50.200Z,66.48
2018-09-08T08:10:17.541Z,66.40
2018-09-08T08:12:45.702Z,66.35
2018-09-08T08:15:13.947Z,65.84
2018-09-08T08:17:41.307Z,65.50
2018-09-08T08:20:08.750Z,64.98
2018-09-08T08:22:36.650Z,65.45
2018-09-08T08:25:04.469Z,65.54
2018-09-08T08:27:32.373Z,64.43
2018-09-08T08:29:59.961Z,63.24
2018-09-08T08:32:27.761Z,61.79
2018-09-08T08:34:55.065Z,61.49
2018-09-08T08:37:22.383Z,62.10
2018-09-08T08:39:50.283Z,62.34
2018-09-08T08:42:18.152Z,63.10
2018-09-08T08:44:45.863Z,61.41
2018-09-08T08:47:13.571Z,61.87
2018-09-08T08:49:41.555Z,62.31
2018-09-08T08:52:20.704Z,62.77
2018-09-08T08:54:52.184Z,62.23
2018-09-08T08:57:20.037Z,62.89
2018-09-08T08:59:47.672Z,61.80
2018-09-08T09:02:15.567Z,60.64
2018-09-08T09:04:43.032Z,61.19
2018-09-08T09:07:12.452Z,60.97
2018-09-08T09:09:40.632Z,61.55
2018-09-08T09:12:07.997Z,61.07
2018-09-08T09:14:36.053Z,62.08
2018-09-08T09:17:04.148Z,61.86
2018-09-08T09:19:43.269Z,62.17
2018-09-08T09:22:26.375Z,61.01
2018-09-08T09:25:03.662Z,62.24
2018-09-08T09:27:32.209Z,62.39
2018-09-08T09:30:00.145Z,62.54
2018-09-08T09:32:27.720Z,62.15
2018-09-08T09:34:56.153Z,62.60
2018-09-08T09:37:23.544Z,61.43
2018-09-08T09:39:51.705Z,60.26
2018-09-08T09:42:19.201Z,59.50
2018-09-08T09:44:46.503Z,58.28
2018-09-08T09:47:13.902Z,56.18
2018-09-08T09:49:41.265Z,54.90
2018-09-08T09:52:08.661Z,56.78
2018-09-08T09:54:36.048Z,55.36
2018-09-08T09:57:03.464Z,56.97
2018-09-08T09:59:30.867Z,54.88
2018-09-08T10:02:07.787Z,54.35
2018-09-08T10:04:35.256Z,55.69
2018-09-08T10:07:02.825Z,55.53
2018-09-08T10:09:30.171Z,55.52
2018-09-08T10:11:58.394Z,55.94
2018-09-08T10:14:26.522Z,55.75
2018-09-08T10:16:53.833Z,55.78
2018-09-08T10:19:21.528Z,55.66
2018-09-08T10:21:48.811Z,55.83
2018-09-08T10:24:16.409Z,56.01
2018-09-08T10:26:43.762Z,55.71
2018-09-08T10:29:11.232Z,55.73
2018-09-08T10:31:38.831Z,55.23
2018-09-08T10:34:06.664Z,53.62
2018-09-08T10:36:34.088Z,53.76
2018-09-08T10:39:01.625Z,53.53
2018-09-08T10:41:29.433Z,52.67
2018-09-08T10:43:57.740Z,54.11
2018-09-08T10:46:25.886Z,53.32
2018-09-08T10:48:53.345Z,53.16
2018-09-08T10:51:34.454Z,53.52
2018-09-08T10:54:02.071Z,51.43
2018-09-08T10:56:29.689Z,51.80
2018-09-08T10:58:57.472Z,52.53
2018-09-08T11:01:25.205Z,52.26
2018-09-08T11:03:53.383Z,50.66
2018-09-08T11:06:21.271Z,50.44
2018-09-08T11:08:49.037Z,50.84
2018-09-08T11:11:17.029Z,50.43
2018-09-08T11:13:44.950Z,51.39
2018-09-08T11:16:12.627Z,49.92
2018-09-08T11:18:40.152Z,49.69
2018-09-08T11:21:07.542Z,50.82
2018-09-08T11:23:35.088Z,51.63
2018-09-08T11:26:02.591Z,51.93
2018-09-08T11:28:31.010Z,50.32
2018-09-08T11:30:58.948Z,51.39
2018-09-08T11:33:27.347Z,53.94
2018-09-08T11:35:55.047Z,52.36
2018-09-08T11:38:23.229Z,51.24
2018-09-08T11:40:50.824Z,51.23
2018-09-08T11:43:18.232Z,49.44
2018-09-08T11:45:45.681Z,52.12
2018-09-08T11:48:13.154Z,51.88
2018-09-08T11:50:40.798Z,53.33
2018-09-08T11:53:08.273Z,53.76
2018-09-08T11:55:35.936Z,53.70
2018-09-08T11:58:03.369Z,54.26
2018-09-08T12:00:30.839Z,53.67
2018-09-08T12:02:58.374Z,52.95
2018-09-08T12:05:25.686Z,53.01
2018-09-08T12:07:53.893Z,53.85
2018-09-08T12:10:21.468Z,54.46
2018-09-08T12:12:49.194Z,53.63
2018-09-08T12:15:16.776Z,53.07
2018-09-08T12:17:44.422Z,52.94
2018-09-08T12:20:11.923Z,54.72
2018-09-08T12:22:41.144Z,53.83
2018-09-08T12:25:08.640Z,54.55
2018-09-08T12:27:36.085Z,55.00
2018-09-08T12:30:03.778Z,56.55
2018-09-08T12:32:31.265Z,55.92
2018-09-08T12:34:58.874Z,56.25
2018-09-08T12:37:26.260Z,56.22
2018-09-08T12:39:53.632Z,56.97
2018-09-08T12:42:21.347Z,55.10
2018-09-08T12:44:48.685Z,55.97
2018-09-08T12:47:16.058Z,55.34
2018-09-08T12:49:43.370Z,55.43
2018-09-08T12:52:10.753Z,56.12
2018-09-08T12:54:38.120Z,56.91
2018-09-08T12:57:05.702Z,57.43
2018-09-08T12:59:33.062Z,56.52
2018-09-08T13:02:00.635Z,58.05
2018-09-08T13:04:28.918Z,58.57
2018-09-08T13:06:56.338Z,58.17
2018-09-08T13:09:23.809Z,59.83
2018-09-08T13:11:51.202Z,59.41
2018-09-08T13:14:18.519Z,59.00
2018-09-08T13:16:45.777Z,58.97
2018-09-08T13:19:13.110Z,60.28
2018-09-08T13:21:40.423Z,59.47
2018-09-08T13:24:07.865Z,60.13
2018-09-08T13:26:35.320Z,60.33
2018-09-08T13:29:02.674Z,61.32
2018-09-08T13:31:30.107Z,60.40
2018-09-08T13:33:58.494Z,60.59
2018-09-08T13:36:25.945Z,59.19
2018-09-08T13:38:53.619Z,59.20
2018-09-08T13:41:20.922Z,59.17
2018-09-08T13:43:48.657Z,62.50
2018-09-08T13:46:16.516Z,61.03
2018-09-08T13:48:43.933Z,61.30
2018-09-08T13:51:11.605Z,59.93
2018-09-08T13:53:39.725Z,60.37
2018-09-08T13:56:07.378Z,60.35
2018-09-08T13:58:34.742Z,59.36
2018-09-08T14:01:02.114Z,58.97
2018-09-08T14:03:29.535Z,57.60
2018-09-08T14:05:56.971Z,57.54
2018-09-08T14:08:24.307Z,56.30
2018-09-08T14:10:51.708Z,56.18
2018-09-08T14:13:19.095Z,55.16
2018-09-08T14:15:46.565Z,55.57
2018-09-08T14:18:13.945Z,54.15
2018-09-08T14:20:41.603Z,55.00
2018-09-08T14:23:09.040Z,51.31
2018-09-08T14:25:36.758Z,48.13
2018-09-08T14:28:04.229Z,49.45
2018-09-08T14:30:31.563Z,51.07
2018-09-08T14:32:59.115Z,53.12
2018-09-08T14:35:26.733Z,52.33
2018-09-08T14:37:54.302Z,52.22
2018-09-08T14:40:21.849Z,54.32
2018-09-08T14:42:49.590Z,52.55
2018-09-08T14:45:17.006Z,54.32
2018-09-08T14:47:44.441Z,54.64
2018-09-08T14:50:11.900Z,54.42
2018-09-08T14:52:39.947Z,54.99
2018-09-08T14:55:07.255Z,55.50
2018-09-08T14:57:34.766Z,54.65
2018-09-08T15:00:02.418Z,54.65
2018-09-08T15:02:29.855Z,54.26
2018-09-08T15:04:57.578Z,55.20
2018-09-08T15:07:24.921Z,52.78
2018-09-08T15:09:52.354Z,53.21
2018-09-08T15:12:19.962Z,52.53
2018-09-08T15:14:47.323Z,53.76
2018-09-08T15:17:14.692Z,52.84
2018-09-08T15:19:42.084Z,52.90
2018-09-08T15:22:09.775Z,52.72
2018-09-08T15:24:37.317Z,54.19
2018-09-08T15:27:05.288Z,54.88
2018-09-08T15:29:32.854Z,55.41
2018-09-08T15:32:00.188Z,55.44
2018-09-08T15:34:27.824Z,53.66
2018-09-08T15:36:55.245Z,54.71
2018-09-08T15:39:22.617Z,54.72
2018-09-08T15:41:50.093Z,56.92
2018-09-08T15:44:18.014Z,55.16
2018-09-08T15:46:45.611Z,55.31
2018-09-08T15:49:13.043Z,56.31
2018-09-08T15:51:40.356Z,56.08
2018-09-08T15:54:07.715Z,56.38
2018-09-08T15:56:35.233Z,56.10
2018-09-08T15:59:02.633Z,56.50
2018-09-08T16:01:30.215Z,56.57
2018-09-08T16:03:57.933Z,56.53
2018-09-08T16:06:25.187Z,56.38
2018-09-08T16:08:53.002Z,56.81
2018-09-08T16:11:20.303Z,57.74
2018-09-08T16:13:47.617Z,58.95
2018-09-08T16:16:15.109Z,58.54
2018-09-08T16:18:42.641Z,57.20
2018-09-08T16:21:10.008Z,58.37
2018-09-08T16:23:37.985Z,57.51
2018-09-08T16:26:06.011Z,58.00
2018-09-08T16:28:33.460Z,57.88
2018-09-08T16:31:00.862Z,58.57
2018-09-08T16:33:28.396Z,58.21
2018-09-08T16:35:55.909Z,56.96
2018-09-08T16:38:23.718Z,57.30
2018-09-08T16:40:51.130Z,57.76
2018-09-08T16:43:19.247Z,57.43
2018-09-08T16:45:46.962Z,57.45
2018-09-08T16:48:14.346Z,58.01
2018-09-08T16:50:42.264Z,58.20
2018-09-08T16:53:09.707Z,56.73
2018-09-08T16:55:37.144Z,56.57
2018-09-08T16:58:04.931Z,57.11
2018-09-08T17:00:32.948Z,57.05
2018-09-08T17:03:00.571Z,57.63
2018-09-08T17:05:27.993Z,57.08
2018-09-08T17:07:55.339Z,57.29
2018-09-08T17:10:22.793Z,57.46
2018-09-08T17:12:50.157Z,57.16
2018-09-08T17:15:17.518Z,57.54
2018-09-08T17:17:44.912Z,57.49
2018-09-08T17:20:14.377Z,57.50
2018-09-08T17:22:42.672Z,57.33
2018-09-08T17:25:10.122Z,57.73
2018-09-08T17:27:38.137Z,57.99
2018-09-08T17:30:08.384Z,58.24
2018-09-08T17:32:36.024Z,58.20
2018-09-08T17:35:03.413Z,57.45
2018-09-08T17:37:30.797Z,58.10
2018-09-08T17:39:58.174Z,58.31
2018-09-08T17:42:25.494Z,59.15
2018-09-08T17:44:53.037Z,59.64
2018-09-08T17:47:20.494Z,59.83
2018-09-08T17:49:48.346Z,59.03
2018-09-08T17:52:15.971Z,58.90
2018-09-08T17:54:43.657Z,59.25
2018-09-08T17:57:11.051Z,59.23
2018-09-08T17:59:38.780Z,59.68
2018-09-08T18:02:06.138Z,60.03
2018-09-08T18:04:33.407Z,59.69
2018-09-08T18:07:00.678Z,60.59
2018-09-08T18:09:27.965Z,60.17
2018-09-08T18:11:55.453Z,60.14
2018-09-08T18:14:22.831Z,60.68
2018-09-08T18:16:50.107Z,60.67
2018-09-08T18:19:17.447Z,61.06
2018-09-08T18:21:44.948Z,61.03
2018-09-08T18:24:12.210Z,60.21
2018-09-08T18:26:40.562Z,60.13
2018-09-08T18:29:07.887Z,61.14
2018-09-08T18:31:35.191Z,61.55
2018-09-08T18:34:02.698Z,61.25
2018-09-08T18:36:30.055Z,61.59
2018-09-08T18:38:58.211Z,61.20
2018-09-08T18:41:25.618Z,61.64
2018-09-08T18:43:53.119Z,61.26
2018-09-08T18:46:21.169Z,61.12
2018-09-08T18:48:48.453Z,61.47
2018-09-08T18:51:16.307Z,61.79
2018-09-08T18:53:44.452Z,61.74
2018-09-08T18:56:11.931Z,61.09
2018-09-08T18:58:39.448Z,60.76
2018-09-08T19:01:07.242Z,61.94
2018-09-08T19:03:34.990Z,61.63
2018-09-08T19:06:02.341Z,61.51
2018-09-08T19:08:35.882Z,61.32
2018-09-08T19:11:03.513Z,62.32
2018-09-08T19:13:30.861Z,62.13
2018-09-08T19:15:58.402Z,61.95
2018-09-08T19:18:25.688Z,62.26
2018-09-08T19:20:53.078Z,62.20
2018-09-08T19:23:20.468Z,62.04
2018-09-08T19:25:47.748Z,62.11
2018-09-08T19:28:15.185Z,62.63
2018-09-08T19:30:42.896Z,62.70
2018-09-08T19:33:10.454Z,62.24
2018-09-08T19:35:39.178Z,62.40
2018-09-08T19:38:06.725Z,62.30
2018-09-08T19:40:40.010Z,63.08
2018-09-08T19:43:07.630Z,63.14
2018-09-08T19:45:35.216Z,62.92
2018-09-08T19:48:07.303Z,63.07
2018-09-08T19:50:35.473Z,62.93
2018-09-08T19:53:08.701Z,62.71
2018-09-08T19:55:36.301Z,62.98
2018-09-08T19:58:09.312Z,63.08
2018-09-08T20:00:36.691Z,62.50
2018-09-08T20:03:04.915Z,62.97
2018-09-08T20:05:32.669Z,62.79
2018-09-08T20:08:00.051Z,63.13
2018-09-08T20:10:28.476Z,62.81
2018-09-08T20:12:56.698Z,63.14
2018-09-08T20:15:24.374Z,62.62
2018-09-08T20:17:52.001Z,64.15
2018-09-08T20:20:19.407Z,63.93
2018-09-08T20:22:46.869Z,64.74
2018-09-08T20:25:14.439Z,64.52
2018-09-08T20:27:41.958Z,64.38
2018-09-08T20:30:09.833Z,64.59
2018-09-08T20:32:37.899Z,64.17
2018-09-08T20:35:05.746Z,66.67
2018-09-08T20:37:33.102Z,65.64
2018-09-08T20:40:01.773Z,66.89
2018-09-08T20:42:29.600Z,65.64
2018-09-08T20:44:57.293Z,65.86
2018-09-08T20:47:24.643Z,64.82
2018-09-08T20:49:52.107Z,65.86
2018-09-08T20:52:19.402Z,65.94
2018-09-08T20:54:48.286Z,65.56
2018-09-08T20:57:15.843Z,65.23
2018-09-08T20:59:43.271Z,65.57
2018-09-08T21:02:10.531Z,65.82
2018-09-08T21:04:38.190Z,67.37
2018-09-08T21:07:06.601Z,66.69
2018-09-08T21:09:34.331Z,67.25
2018-09-08T21:12:01.937Z,68.03
2018-09-08T21:14:29.289Z,67.30
2018-09-08T21:16:56.545Z,68.01
2018-09-08T21:19:23.864Z,67.56
2018-09-08T21:21:51.145Z,68.73
2018-09-08T21:24:18.609Z,67.87
2018-09-08T21:26:45.980Z,67.86
2018-09-08T21:29:14.360Z,67.81
2018-09-08T21:31:41.640Z,68.09
2018-09-08T21:34:09.122Z,68.26
2018-09-08T21:36:36.569Z,67.96
2018-09-08T21:39:05.589Z,67.84
2018-09-08T21:41:32.913Z,67.87
2018-09-08T21:44:00.331Z,67.43
2018-09-08T21:46:27.706Z,68.19
2018-09-08T21:48:55.019Z,67.83
2018-09-08T21:51:22.575Z,67.50
2018-09-08T21:53:49.889Z,67.96
2018-09-08T21:56:17.272Z,67.96
2018-09-08T21:58:44.545Z,67.97
2018-09-08T22:01:17.631Z,67.86
2018-09-08T22:03:45.041Z,67.95
2018-09-08T22:06:12.785Z,68.63
2018-09-08T22:08:40.299Z,68.32
2018-09-08T22:11:08.380Z,69.34
2018-09-08T22:13:35.855Z,69.07
2018-09-08T22:16:03.479Z,69.57
2018-09-08T22:18:31.043Z,69.56
2018-09-08T22:20:58.962Z,69.59
2018-09-08T22:23:26.526Z,69.08
2018-09-08T22:25:54.346Z,69.06
2018-09-08T22:28:21.717Z,69.39
2018-09-08T22:30:49.120Z,69.29
2018-09-08T22:33:16.918Z,69.61
2018-09-08T22:35:44.308Z,69.65
2018-09-08T22:38:11.939Z,69.93
2018-09-08T22:40:39.215Z,69.96
2018-09-08T22:43:06.498Z,70.03
2018-09-08T22:45:33.737Z,70.93
2018-09-08T22:48:01.458Z,70.40
2018-09-08T22:50:28.946Z,69.46
2018-09-08T22:52:56.346Z,70.04
2018-09-08T22:55:24.390Z,70.57
2018-09-08T22:57:51.832Z,70.28
2018-09-08T23:00:19.145Z,70.52
2018-09-08T23:02:46.606Z,70.63
2018-09-08T23:05:14.046Z,70.94
2018-09-08T23:07:41.431Z,71.23
2018-09-08T23:10:09.031Z,71.15
2018-09-08T23:12:37.105Z,71.35
2018-09-08T23:15:05.421Z,70.85
2018-09-08T23:17:32.967Z,70.98
2018-09-08T23:20:00.518Z,71.35
2018-09-08T23:22:27.902Z,71.68
2018-09-08T23:24:56.107Z,71.57
2018-09-08T23:27:23.700Z,71.65
2018-09-08T23:29:51.305Z,71.08
2018-09-08T23:32:19.145Z,71.11
2018-09-08T23:34:46.686Z,71.46
2018-09-08T23:37:13.939Z,71.95
2018-09-08T23:39:41.739Z,71.58
2018-09-08T23:42:09.225Z,71.60
2018-09-08T23:44:36.617Z,72.11
2018-09-08T23:47:03.948Z,72.13
2018-09-08T23:49:31.810Z,72.05
2018-09-08T23:51:59.671Z,72.37
2018-09-08T23:54:27.118Z,72.40
2018-09-08T23:56:54.470Z,71.82
2018-09-08T23:59:22.491Z,71.99
